sensor_id;sensor_type;location;lat;lon;timestamp;temperature;humidity
1091;DHT22;534;48.704;9.122;2022-08-19T03:01:57;22.80;73.50
1091;DHT22;534;48.704;9.122;2022-08-19T03:04:24;22.60;73.80
1091;DHT22;534;48.704;9.122;2022-08-19T03:06:51;22.70;73.90
1091;DHT22;534;48.704;9.122;2022-08-19T03:09:19;22.60;74.00
1091;DHT22;534;48.704;9.122;2022-08-19T03:11:46;22.50;74.20
1091;DHT22;534;48.704;9.122;2022-08-19T03:14:13;22.50;74.50
1091;DHT22;534;48.704;9.122;2022-08-19T03:16:42;22.50;74.50
1091;DHT22;534;48.704;9.122;2022-08-19T03:19:10;22.60;74.20
1091;DHT22;534;48.704;9.122;2022-08-19T03:21:37;22.60;74.20
1091;DHT22;534;48.704;9.122;2022-08-19T03:24:06;22.60;74.10
1091;DHT22;534;48.704;9.122;2022-08-19T03:26:33;22.60;74.10
1091;DHT22;534;48.704;9.122;2022-08-19T03:29:02;22.60;74.10
1091;DHT22;534;48.704;9.122;2022-08-19T03:31:29;22.50;74.40
1091;DHT22;534;48.704;9.122;2022-08-19T03:33:56;22.50;74.40
1091;DHT22;534;48.704;9.122;2022-08-19T03:36:26;22.50;74.70
1091;DHT22;534;48.704;9.122;2022-08-19T03:38:55;22.40;74.70
1091;DHT22;534;48.704;9.122;2022-08-19T03:41:24;22.40;75.00
1091;DHT22;534;48.704;9.122;2022-08-19T03:43:52;22.40;75.00
1091;DHT22;534;48.704;9.122;2022-08-19T03:46:23;22.40;75.00
1091;DHT22;534;48.704;9.122;2022-08-19T03:48:52;22.40;75.00
1091;DHT22;534;48.704;9.122;2022-08-19T03:51:21;22.40;74.80
1091;DHT22;534;48.704;9.122;2022-08-19T03:53:49;22.40;74.80
1091;DHT22;534;48.704;9.122;2022-08-19T03:56:16;22.40;74.90
1091;DHT22;534;48.704;9.122;2022-08-19T03:58:43;22.40;74.90
1091;DHT22;534;48.704;9.122;2022-08-19T04:01:14;22.50;74.80
1091;DHT22;534;48.704;9.122;2022-08-19T04:03:41;22.40;75.00
1091;DHT22;534;48.704;9.122;2022-08-19T04:06:12;22.40;75.00
1091;DHT22;534;48.704;9.122;2022-08-19T04:08:39;22.30;75.10
1091;DHT22;534;48.704;9.122;2022-08-19T04:11:10;22.30;75.10
1091;DHT22;534;48.704;9.122;2022-08-19T04:13:37;22.30;75.20
1091;DHT22;534;48.704;9.122;2022-08-19T04:16:05;22.30;75.20
1091;DHT22;534;48.704;9.122;2022-08-19T04:18:32;22.20;75.40
1091;DHT22;534;48.704;9.122;2022-08-19T04:20:59;22.20;75.30
1091;DHT22;534;48.704;9.122;2022-08-19T04:23:26;22.10;75.40
1091;DHT22;534;48.704;9.122;2022-08-19T04:25:54;22.10;75.60
1091;DHT22;534;48.704;9.122;2022-08-19T04:28:23;22.10;75.60
1091;DHT22;534;48.704;9.122;2022-08-19T04:30:52;22.10;75.60
1091;DHT22;534;48.704;9.122;2022-08-19T04:33:21;22.10;75.70
1091;DHT22;534;48.704;9.122;2022-08-19T04:35:51;22.00;75.60
1091;DHT22;534;48.704;9.122;2022-08-19T04:38:19;22.10;75.60
1091;DHT22;534;48.704;9.122;2022-08-19T04:40:49;22.00;75.60
1091;DHT22;534;48.704;9.122;2022-08-19T04:43:37;22.10;75.60
1091;DHT22;534;48.704;9.122;2022-08-19T04:46:05;22.10;75.30
1091;DHT22;534;48.704;9.122;2022-08-19T04:48:32;22.10;75.50
1091;DHT22;534;48.704;9.122;2022-08-19T04:50:59;22.00;75.80
1091;DHT22;534;48.704;9.122;2022-08-19T04:53:26;22.10;75.60
1091;DHT22;534;48.704;9.122;2022-08-19T04:55:54;22.10;75.50
1091;DHT22;534;48.704;9.122;2022-08-19T04:58:22;22.10;75.60
1091;DHT22;534;48.704;9.122;2022-08-19T05:00:50;22.10;75.50
1091;DHT22;534;48.704;9.122;2022-08-19T05:03:17;22.20;75.50
1091;DHT22;534;48.704;9.122;2022-08-19T05:05:45;22.20;75.40
1091;DHT22;534;48.704;9.122;2022-08-19T05:08:16;22.10;75.60
1091;DHT22;534;48.704;9.122;2022-08-19T05:10:45;22.00;75.80
1091;DHT22;534;48.704;9.122;2022-08-19T05:13:13;21.90;76.30
1091;DHT22;534;48.704;9.122;2022-08-19T05:15:40;21.90;76.20
1091;DHT22;534;48.704;9.122;2022-08-19T05:18:08;21.90;76.50
1091;DHT22;534;48.704;9.122;2022-08-19T05:20:52;21.90;76.60
1091;DHT22;534;48.704;9.122;2022-08-19T05:23:36;21.90;76.60
1091;DHT22;534;48.704;9.122;2022-08-19T05:26:03;21.90;76.60
1091;DHT22;534;48.704;9.122;2022-08-19T05:28:30;22.00;76.30
1091;DHT22;534;48.704;9.122;2022-08-19T05:30:57;22.00;76.20
1091;DHT22;534;48.704;9.122;2022-08-19T05:33:25;22.10;76.00
1091;DHT22;534;48.704;9.122;2022-08-19T05:35:52;22.00;76.10
1091;DHT22;534;48.704;9.122;2022-08-19T05:38:19;22.00;76.10
1091;DHT22;534;48.704;9.122;2022-08-19T05:40:46;22.00;76.20
1091;DHT22;534;48.704;9.122;2022-08-19T05:43:15;21.90;76.30
1091;DHT22;534;48.704;9.122;2022-08-19T05:45:43;21.90;76.40
1091;DHT22;534;48.704;9.122;2022-08-19T05:48:10;22.00;76.10
1091;DHT22;534;48.704;9.122;2022-08-19T05:50:39;22.00;76.10
1091;DHT22;534;48.704;9.122;2022-08-19T05:53:06;22.10;75.80
1091;DHT22;534;48.704;9.122;2022-08-19T05:55:34;22.10;75.80
1091;DHT22;534;48.704;9.122;2022-08-19T05:58:03;22.30;75.50
1091;DHT22;534;48.704;9.122;2022-08-19T06:00:33;22.30;75.20
1091;DHT22;534;48.704;9.122;2022-08-19T06:02:59;22.20;75.40
1091;DHT22;534;48.704;9.122;2022-08-19T06:05:28;22.10;75.50
1091;DHT22;534;48.704;9.122;2022-08-19T06:07:56;22.10;75.80
1091;DHT22;534;48.704;9.122;2022-08-19T06:10:24;22.00;75.80
1091;DHT22;534;48.704;9.122;2022-08-19T06:12:52;22.00;76.00
1091;DHT22;534;48.704;9.122;2022-08-19T06:15:19;22.00;76.10
1091;DHT22;534;48.704;9.122;2022-08-19T06:17:51;22.10;76.10
1091;DHT22;534;48.704;9.122;2022-08-19T06:20:18;22.10;75.90
1091;DHT22;534;48.704;9.122;2022-08-19T06:22:47;22.10;75.80
1091;DHT22;534;48.704;9.122;2022-08-19T06:25:16;22.10;75.80
1091;DHT22;534;48.704;9.122;2022-08-19T06:27:44;22.00;75.90
1091;DHT22;534;48.704;9.122;2022-08-19T06:30:11;22.00;76.20
1091;DHT22;534;48.704;9.122;2022-08-19T06:32:38;22.10;76.10
1091;DHT22;534;48.704;9.122;2022-08-19T06:35:06;22.20;75.80
1091;DHT22;534;48.704;9.122;2022-08-19T06:37:33;22.20;75.70
1091;DHT22;534;48.704;9.122;2022-08-19T06:40:00;22.20;75.70
1091;DHT22;534;48.704;9.122;2022-08-19T06:42:28;22.20;75.60
1091;DHT22;534;48.704;9.122;2022-08-19T06:44:54;22.20;75.70
1091;DHT22;534;48.704;9.122;2022-08-19T06:47:21;22.20;75.70
1091;DHT22;534;48.704;9.122;2022-08-19T06:49:48;22.20;75.70
1091;DHT22;534;48.704;9.122;2022-08-19T06:52:15;22.20;76.00
1091;DHT22;534;48.704;9.122;2022-08-19T06:54:42;22.20;75.90
1091;DHT22;534;48.704;9.122;2022-08-19T06:57:08;22.20;75.90
1091;DHT22;534;48.704;9.122;2022-08-19T06:59:41;22.30;75.90
1091;DHT22;534;48.704;9.122;2022-08-19T07:02:08;22.20;76.20
1091;DHT22;534;48.704;9.122;2022-08-19T07:04:36;22.30;76.00
1091;DHT22;534;48.704;9.122;2022-08-19T07:07:06;22.30;76.20
1091;DHT22;534;48.704;9.122;2022-08-19T07:09:36;22.30;76.10
1091;DHT22;534;48.704;9.122;2022-08-19T07:12:05;22.40;76.40
1091;DHT22;534;48.704;9.122;2022-08-19T07:14:33;22.30;76.40
1091;DHT22;534;48.704;9.122;2022-08-19T07:17:05;22.30;76.80
1091;DHT22;534;48.704;9.122;2022-08-19T07:19:32;22.20;77.10
1091;DHT22;534;48.704;9.122;2022-08-19T07:22:01;22.10;77.50
1091;DHT22;534;48.704;9.122;2022-08-19T07:24:29;22.10;77.70
1091;DHT22;534;48.704;9.122;2022-08-19T07:26:58;22.00;77.70
1091;DHT22;534;48.704;9.122;2022-08-19T07:29:28;22.00;78.10
1091;DHT22;534;48.704;9.122;2022-08-19T07:31:56;22.10;78.10
1091;DHT22;534;48.704;9.122;2022-08-19T07:34:26;22.00;78.00
1091;DHT22;534;48.704;9.122;2022-08-19T07:36:54;22.00;77.80
1091;DHT22;534;48.704;9.122;2022-08-19T07:39:23;22.00;78.00
1091;DHT22;534;48.704;9.122;2022-08-19T07:41:50;22.00;78.00
1091;DHT22;534;48.704;9.122;2022-08-19T07:44:18;22.00;77.80
1091;DHT22;534;48.704;9.122;2022-08-19T07:46:50;22.00;77.90
1091;DHT22;534;48.704;9.122;2022-08-19T07:49:18;22.10;77.70
1091;DHT22;534;48.704;9.122;2022-08-19T07:51:49;22.10;77.60
1091;DHT22;534;48.704;9.122;2022-08-19T07:54:16;22.00;77.60
1091;DHT22;534;48.704;9.122;2022-08-19T07:56:43;22.10;77.50
1091;DHT22;534;48.704;9.122;2022-08-19T07:59:09;22.10;77.50
1091;DHT22;534;48.704;9.122;2022-08-19T08:01:37;22.10;77.40
1091;DHT22;534;48.704;9.122;2022-08-19T08:04:06;22.10;77.50
1091;DHT22;534;48.704;9.122;2022-08-19T08:06:52;22.10;77.40
1091;DHT22;534;48.704;9.122;2022-08-19T08:09:39;22.10;77.50
1091;DHT22;534;48.704;9.122;2022-08-19T08:12:08;22.10;77.50
1091;DHT22;534;48.704;9.122;2022-08-19T08:14:37;22.10;77.30
1091;DHT22;534;48.704;9.122;2022-08-19T08:17:06;22.20;77.30
1091;DHT22;534;48.704;9.122;2022-08-19T08:19:33;22.10;77.40
1091;DHT22;534;48.704;9.122;2022-08-19T08:22:01;22.20;77.60
1091;DHT22;534;48.704;9.122;2022-08-19T08:24:30;22.20;77.60
1091;DHT22;534;48.704;9.122;2022-08-19T08:26:58;22.10;77.90
1091;DHT22;534;48.704;9.122;2022-08-19T08:29:26;22.00;78.10
1091;DHT22;534;48.704;9.122;2022-08-19T08:31:53;22.00;78.30
1091;DHT22;534;48.704;9.122;2022-08-19T08:34:20;22.00;78.60
1091;DHT22;534;48.704;9.122;2022-08-19T08:36:47;22.00;78.90
1091;DHT22;534;48.704;9.122;2022-08-19T08:39:17;22.00;78.80
1091;DHT22;534;48.704;9.122;2022-08-19T08:41:50;22.00;78.90
1091;DHT22;534;48.704;9.122;2022-08-19T08:44:22;22.00;78.90
1091;DHT22;534;48.704;9.122;2022-08-19T08:46:53;22.10;79.10
1091;DHT22;534;48.704;9.122;2022-08-19T08:49:29;22.10;79.40
1091;DHT22;534;48.704;9.122;2022-08-19T08:52:02;22.10;79.30
1091;DHT22;534;48.704;9.122;2022-08-19T08:54:34;22.20;79.20
1091;DHT22;534;48.704;9.122;2022-08-19T08:57:04;22.20;79.00
1091;DHT22;534;48.704;9.122;2022-08-19T08:59:36;22.20;79.20
1091;DHT22;534;48.704;9.122;2022-08-19T09:02:04;22.30;79.10
1091;DHT22;534;48.704;9.122;2022-08-19T09:04:31;22.20;79.50
1091;DHT22;534;48.704;9.122;2022-08-19T09:07:09;22.30;79.70
1091;DHT22;534;48.704;9.122;2022-08-19T09:09:45;22.30;79.40
1091;DHT22;534;48.704;9.122;2022-08-19T09:12:17;22.30;79.30
1091;DHT22;534;48.704;9.122;2022-08-19T09:14:48;22.30;79.20
1091;DHT22;534;48.704;9.122;2022-08-19T09:17:18;22.30;79.20
1091;DHT22;534;48.704;9.122;2022-08-19T09:19:51;22.40;79.20
1091;DHT22;534;48.704;9.122;2022-08-19T09:22:19;22.30;78.90
1091;DHT22;534;48.704;9.122;2022-08-19T09:24:48;22.40;78.70
1091;DHT22;534;48.704;9.122;2022-08-19T09:27:15;22.50;78.70
1091;DHT22;534;48.704;9.122;2022-08-19T09:29:42;22.50;78.20
1091;DHT22;534;48.704;9.122;2022-08-19T09:32:09;22.50;78.70
1091;DHT22;534;48.704;9.122;2022-08-19T09:34:35;22.30;78.60
1091;DHT22;534;48.704;9.122;2022-08-19T09:37:02;22.30;78.90
1091;DHT22;534;48.704;9.122;2022-08-19T09:39:30;22.30;78.30
1091;DHT22;534;48.704;9.122;2022-08-19T09:41:58;22.20;78.80
1091;DHT22;534;48.704;9.122;2022-08-19T09:44:25;22.30;78.80
1091;DHT22;534;48.704;9.122;2022-08-19T09:46:52;22.30;78.80
1091;DHT22;534;48.704;9.122;2022-08-19T09:49:19;22.30;78.70
1091;DHT22;534;48.704;9.122;2022-08-19T09:51:49;22.30;78.20
1091;DHT22;534;48.704;9.122;2022-08-19T09:54:17;22.30;78.20
1091;DHT22;534;48.704;9.122;2022-08-19T09:56:43;22.30;78.50
1091;DHT22;534;48.704;9.122;2022-08-19T09:59:11;22.30;78.40
1091;DHT22;534;48.704;9.122;2022-08-19T10:01:39;22.40;78.50
1091;DHT22;534;48.704;9.122;2022-08-19T10:04:05;22.40;78.70
1091;DHT22;534;48.704;9.122;2022-08-19T10:06:34;22.50;78.50
1091;DHT22;534;48.704;9.122;2022-08-19T10:09:01;22.40;78.50
1091;DHT22;534;48.704;9.122;2022-08-19T10:11:30;22.40;78.30
1091;DHT22;534;48.704;9.122;2022-08-19T10:13:56;22.30;78.90
1091;DHT22;534;48.704;9.122;2022-08-19T10:16:25;22.30;78.50
1091;DHT22;534;48.704;9.122;2022-08-19T10:18:53;22.30;78.60
1091;DHT22;534;48.704;9.122;2022-08-19T10:21:22;22.30;78.60
1091;DHT22;534;48.704;9.122;2022-08-19T10:23:51;22.40;78.20
1091;DHT22;534;48.704;9.122;2022-08-19T10:26:20;22.50;77.90
1091;DHT22;534;48.704;9.122;2022-08-19T10:28:47;22.70;78.00
1091;DHT22;534;48.704;9.122;2022-08-19T10:31:17;22.70;77.90
1091;DHT22;534;48.704;9.122;2022-08-19T10:33:46;22.60;77.30
1091;DHT22;534;48.704;9.122;2022-08-19T10:36:15;22.60;77.30
1091;DHT22;534;48.704;9.122;2022-08-19T10:38:43;22.80;77.10
1091;DHT22;534;48.704;9.122;2022-08-19T10:41:12;22.70;77.10
1091;DHT22;534;48.704;9.122;2022-08-19T10:43:40;22.80;77.20
1091;DHT22;534;48.704;9.122;2022-08-19T10:46:08;22.90;77.40
1091;DHT22;534;48.704;9.122;2022-08-19T10:48:36;23.00;76.80
1091;DHT22;534;48.704;9.122;2022-08-19T10:51:05;23.00;76.30
1091;DHT22;534;48.704;9.122;2022-08-19T10:53:49;23.00;76.80
1091;DHT22;534;48.704;9.122;2022-08-19T10:56:16;22.90;77.10
1091;DHT22;534;48.704;9.122;2022-08-19T10:59:00;22.90;77.10
1091;DHT22;534;48.704;9.122;2022-08-19T11:01:29;22.90;77.10
1091;DHT22;534;48.704;9.122;2022-08-19T11:03:56;22.90;77.00
1091;DHT22;534;48.704;9.122;2022-08-19T11:06:24;22.90;77.20
1091;DHT22;534;48.704;9.122;2022-08-19T11:08:51;23.00;76.40
1091;DHT22;534;48.704;9.122;2022-08-19T11:11:18;22.90;76.60
1091;DHT22;534;48.704;9.122;2022-08-19T11:13:45;22.90;76.90
1091;DHT22;534;48.704;9.122;2022-08-19T11:16:15;23.00;76.70
1091;DHT22;534;48.704;9.122;2022-08-19T11:18:44;23.10;76.30
1091;DHT22;534;48.704;9.122;2022-08-19T11:21:14;23.10;76.60
1091;DHT22;534;48.704;9.122;2022-08-19T11:23:44;23.20;76.60
1091;DHT22;534;48.704;9.122;2022-08-19T11:26:12;23.30;75.60
1091;DHT22;534;48.704;9.122;2022-08-19T11:28:40;23.30;75.80
1091;DHT22;534;48.704;9.122;2022-08-19T11:31:10;23.30;75.70
1091;DHT22;534;48.704;9.122;2022-08-19T11:33:37;23.40;75.30
1091;DHT22;534;48.704;9.122;2022-08-19T11:36:04;23.40;75.10
1091;DHT22;534;48.704;9.122;2022-08-19T11:38:31;23.40;74.20
1091;DHT22;534;48.704;9.122;2022-08-19T11:41:00;23.40;75.10
1091;DHT22;534;48.704;9.122;2022-08-19T11:43:27;23.50;74.70
1091;DHT22;534;48.704;9.122;2022-08-19T11:45:55;23.60;75.10
1091;DHT22;534;48.704;9.122;2022-08-19T11:48:22;23.60;74.30
1091;DHT22;534;48.704;9.122;2022-08-19T11:50:50;23.60;73.90
1091;DHT22;534;48.704;9.122;2022-08-19T11:53:18;23.70;73.90
1091;DHT22;534;48.704;9.122;2022-08-19T11:55:45;23.70;73.20
1091;DHT22;534;48.704;9.122;2022-08-19T11:58:15;23.80;72.80
1091;DHT22;534;48.704;9.122;2022-08-19T12:00:43;23.90;73.40
1091;DHT22;534;48.704;9.122;2022-08-19T12:03:12;24.00;73.10
1091;DHT22;534;48.704;9.122;2022-08-19T12:05:39;24.10;73.10
1091;DHT22;534;48.704;9.122;2022-08-19T12:08:07;24.20;72.30
1091;DHT22;534;48.704;9.122;2022-08-19T12:10:34;24.30;72.20
1091;DHT22;534;48.704;9.122;2022-08-19T12:13:01;24.30;72.10
1091;DHT22;534;48.704;9.122;2022-08-19T12:15:29;24.30;72.10
1091;DHT22;534;48.704;9.122;2022-08-19T12:17:56;24.30;72.20
1091;DHT22;534;48.704;9.122;2022-08-19T12:20:24;24.40;72.10
1091;DHT22;534;48.704;9.122;2022-08-19T12:22:51;24.40;71.60
1091;DHT22;534;48.704;9.122;2022-08-19T12:25:18;24.40;70.90
1091;DHT22;534;48.704;9.122;2022-08-19T12:27:46;24.40;71.00
1091;DHT22;534;48.704;9.122;2022-08-19T12:30:13;24.50;71.50
1091;DHT22;534;48.704;9.122;2022-08-19T12:32:41;24.50;71.60
1091;DHT22;534;48.704;9.122;2022-08-19T12:35:09;24.50;71.00
1091;DHT22;534;48.704;9.122;2022-08-19T12:37:37;24.50;71.00
1091;DHT22;534;48.704;9.122;2022-08-19T12:40:04;24.50;71.00
1091;DHT22;534;48.704;9.122;2022-08-19T12:42:31;24.50;71.20
1091;DHT22;534;48.704;9.122;2022-08-19T12:44:58;24.30;72.20
1091;DHT22;534;48.704;9.122;2022-08-19T12:47:24;24.30;71.30
1091;DHT22;534;48.704;9.122;2022-08-19T12:49:53;24.20;71.90
1091;DHT22;534;48.704;9.122;2022-08-19T12:52:21;24.30;71.90
1091;DHT22;534;48.704;9.122;2022-08-19T12:54:48;24.20;74.80
1091;DHT22;534;48.704;9.122;2022-08-19T12:57:15;23.80;78.30
1091;DHT22;534;48.704;9.122;2022-08-19T12:59:41;23.60;79.60
1091;DHT22;534;48.704;9.122;2022-08-19T13:02:08;23.20;81.10
1091;DHT22;534;48.704;9.122;2022-08-19T13:04:35;22.80;83.40
1091;DHT22;534;48.704;9.122;2022-08-19T13:07:07;22.70;84.30
1091;DHT22;534;48.704;9.122;2022-08-19T13:09:35;22.50;85.10
1091;DHT22;534;48.704;9.122;2022-08-19T13:12:01;22.30;85.70
1091;DHT22;534;48.704;9.122;2022-08-19T13:14:28;22.40;85.30
1091;DHT22;534;48.704;9.122;2022-08-19T13:16:57;22.60;84.70
1091;DHT22;534;48.704;9.122;2022-08-19T13:19:23;22.60;83.70
1091;DHT22;534;48.704;9.122;2022-08-19T13:21:51;22.60;83.20
1091;DHT22;534;48.704;9.122;2022-08-19T13:24:19;22.70;83.50
1091;DHT22;534;48.704;9.122;2022-08-19T13:26:45;22.70;83.40
1091;DHT22;534;48.704;9.122;2022-08-19T13:29:13;22.80;83.50
1091;DHT22;534;48.704;9.122;2022-08-19T13:31:58;22.80;83.50
1091;DHT22;534;48.704;9.122;2022-08-19T13:34:42;22.70;83.60
1091;DHT22;534;48.704;9.122;2022-08-19T13:37:10;22.70;84.00
1091;DHT22;534;48.704;9.122;2022-08-19T13:39:38;22.40;84.80
1091;DHT22;534;48.704;9.122;2022-08-19T13:42:05;22.20;85.90
1091;DHT22;534;48.704;9.122;2022-08-19T13:44:34;22.10;86.30
1091;DHT22;534;48.704;9.122;2022-08-19T13:47:03;21.90;87.00
1091;DHT22;534;48.704;9.122;2022-08-19T13:49:33;21.80;87.00
1091;DHT22;534;48.704;9.122;2022-08-19T13:52:01;21.60;87.40
1091;DHT22;534;48.704;9.122;2022-08-19T13:54:28;21.80;87.30
1091;DHT22;534;48.704;9.122;2022-08-19T13:56:56;21.80;87.10
1091;DHT22;534;48.704;9.122;2022-08-19T13:59:23;21.80;86.90
1091;DHT22;534;48.704;9.122;2022-08-19T14:01:50;21.70;87.20
1091;DHT22;534;48.704;9.122;2022-08-19T14:04:16;21.80;87.50
1091;DHT22;534;48.704;9.122;2022-08-19T14:06:44;21.80;87.20
1091;DHT22;534;48.704;9.122;2022-08-19T14:09:11;21.80;87.30
1091;DHT22;534;48.704;9.122;2022-08-19T14:11:37;21.60;87.90
1091;DHT22;534;48.704;9.122;2022-08-19T14:14:05;21.60;88.20
1091;DHT22;534;48.704;9.122;2022-08-19T14:16:32;21.50;88.30
1091;DHT22;534;48.704;9.122;2022-08-19T14:18:59;21.60;88.30
1091;DHT22;534;48.704;9.122;2022-08-19T14:21:25;21.50;88.10
1091;DHT22;534;48.704;9.122;2022-08-19T14:23:53;21.60;88.00
1091;DHT22;534;48.704;9.122;2022-08-19T14:26:21;21.50;87.80
1091;DHT22;534;48.704;9.122;2022-08-19T14:28:48;21.60;88.20
1091;DHT22;534;48.704;9.122;2022-08-19T14:31:17;21.70;87.60
1091;DHT22;534;48.704;9.122;2022-08-19T14:33:45;21.80;87.30
1091;DHT22;534;48.704;9.122;2022-08-19T14:36:12;21.80;87.60
1091;DHT22;534;48.704;9.122;2022-08-19T14:38:39;21.70;86.90
1091;DHT22;534;48.704;9.122;2022-08-19T14:41:11;21.70;87.30
1091;DHT22;534;48.704;9.122;2022-08-19T14:43:38;21.80;86.90
1091;DHT22;534;48.704;9.122;2022-08-19T14:46:05;21.70;87.20
1091;DHT22;534;48.704;9.122;2022-08-19T14:48:33;21.60;87.60
1091;DHT22;534;48.704;9.122;2022-08-19T14:51:01;21.80;87.90
1091;DHT22;534;48.704;9.122;2022-08-19T14:53:28;21.80;87.50
1091;DHT22;534;48.704;9.122;2022-08-19T14:55:55;21.80;87.10
1091;DHT22;534;48.704;9.122;2022-08-19T14:58:21;21.80;87.50
1091;DHT22;534;48.704;9.122;2022-08-19T15:00:48;22.10;87.10
1091;DHT22;534;48.704;9.122;2022-08-19T15:03:15;22.20;85.10
1091;DHT22;534;48.704;9.122;2022-08-19T15:05:43;22.20;85.20
1091;DHT22;534;48.704;9.122;2022-08-19T15:08:10;22.10;85.70
1091;DHT22;534;48.704;9.122;2022-08-19T15:10:38;22.20;85.90
1091;DHT22;534;48.704;9.122;2022-08-19T15:13:14;22.30;85.00
1091;DHT22;534;48.704;9.122;2022-08-19T15:15:41;22.20;85.30
1091;DHT22;534;48.704;9.122;2022-08-19T15:18:08;22.40;85.40
1091;DHT22;534;48.704;9.122;2022-08-19T15:20:37;22.40;84.50
1091;DHT22;534;48.704;9.122;2022-08-19T15:23:05;22.50;84.50
1091;DHT22;534;48.704;9.122;2022-08-19T15:25:32;22.60;84.20
1091;DHT22;534;48.704;9.122;2022-08-19T15:27:59;22.30;84.90
1091;DHT22;534;48.704;9.122;2022-08-19T15:30:27;22.30;84.90
1091;DHT22;534;48.704;9.122;2022-08-19T15:32:55;22.30;85.30
1091;DHT22;534;48.704;9.122;2022-08-19T15:35:22;22.50;84.20
1091;DHT22;534;48.704;9.122;2022-08-19T15:37:50;22.50;84.30
1091;DHT22;534;48.704;9.122;2022-08-19T15:40:20;22.50;84.40
1091;DHT22;534;48.704;9.122;2022-08-19T15:42:47;22.60;84.40
1091;DHT22;534;48.704;9.122;2022-08-19T15:45:16;22.80;84.20
1091;DHT22;534;48.704;9.122;2022-08-19T15:47:44;22.90;83.50
1091;DHT22;534;48.704;9.122;2022-08-19T15:50:13;22.90;83.40
1091;DHT22;534;48.704;9.122;2022-08-19T15:52:45;23.10;82.90
1091;DHT22;534;48.704;9.122;2022-08-19T15:55:12;23.10;82.80
1091;DHT22;534;48.704;9.122;2022-08-19T15:57:40;23.00;82.40
1091;DHT22;534;48.704;9.122;2022-08-19T16:00:24;23.00;82.50
1091;DHT22;534;48.704;9.122;2022-08-19T16:03:13;23.00;82.90
1091;DHT22;534;48.704;9.122;2022-08-19T16:05:57;23.00;82.10
1091;DHT22;534;48.704;9.122;2022-08-19T16:08:47;23.10;82.30
1091;DHT22;534;48.704;9.122;2022-08-19T16:11:16;23.20;82.40
1091;DHT22;534;48.704;9.122;2022-08-19T16:13:46;23.20;82.50
1091;DHT22;534;48.704;9.122;2022-08-19T16:16:15;23.30;82.20
1091;DHT22;534;48.704;9.122;2022-08-19T16:18:42;23.10;82.40
1091;DHT22;534;48.704;9.122;2022-08-19T16:21:11;23.40;81.80
1091;DHT22;534;48.704;9.122;2022-08-19T16:23:38;23.60;80.70
1091;DHT22;534;48.704;9.122;2022-08-19T16:26:06;23.50;81.00
1091;DHT22;534;48.704;9.122;2022-08-19T16:28:32;23.50;81.30
1091;DHT22;534;48.704;9.122;2022-08-19T16:31:00;23.80;80.30
1091;DHT22;534;48.704;9.122;2022-08-19T16:33:27;24.00;79.00
1091;DHT22;534;48.704;9.122;2022-08-19T16:35:54;24.00;78.90
1091;DHT22;534;48.704;9.122;2022-08-19T16:38:21;23.80;80.00
1091;DHT22;534;48.704;9.122;2022-08-19T16:40:48;24.00;79.50
1091;DHT22;534;48.704;9.122;2022-08-19T16:43:19;23.90;78.50
1091;DHT22;534;48.704;9.122;2022-08-19T16:45:47;23.90;79.10
1091;DHT22;534;48.704;9.122;2022-08-19T16:48:18;23.70;80.00
1091;DHT22;534;48.704;9.122;2022-08-19T16:50:46;23.60;79.50
1091;DHT22;534;48.704;9.122;2022-08-19T16:53:13;23.50;79.60
1091;DHT22;534;48.704;9.122;2022-08-19T16:55:41;23.50;79.70
1091;DHT22;534;48.704;9.122;2022-08-19T16:58:08;23.50;79.80
1091;DHT22;534;48.704;9.122;2022-08-19T17:00:35;23.40;80.50
1091;DHT22;534;48.704;9.122;2022-08-19T17:03:06;23.20;81.30
1091;DHT22;534;48.704;9.122;2022-08-19T17:05:38;23.30;81.20
1091;DHT22;534;48.704;9.122;2022-08-19T17:08:07;23.30;81.30
1091;DHT22;534;48.704;9.122;2022-08-19T17:10:33;23.20;81.30
1091;DHT22;534;48.704;9.122;2022-08-19T17:13:03;23.20;81.20
1091;DHT22;534;48.704;9.122;2022-08-19T17:15:29;23.00;81.90
1091;DHT22;534;48.704;9.122;2022-08-19T17:17:59;22.90;82.30
1091;DHT22;534;48.704;9.122;2022-08-19T17:20:25;22.80;83.10
1091;DHT22;534;48.704;9.122;2022-08-19T17:22:54;22.70;83.40
1091;DHT22;534;48.704;9.122;2022-08-19T17:25:21;22.80;83.00
1091;DHT22;534;48.704;9.122;2022-08-19T17:27:48;22.70;83.50
1091;DHT22;534;48.704;9.122;2022-08-19T17:30:16;22.60;83.70
1091;DHT22;534;48.704;9.122;2022-08-19T17:32:43;22.40;84.40
1091;DHT22;534;48.704;9.122;2022-08-19T17:35:09;22.40;84.90
1091;DHT22;534;48.704;9.122;2022-08-19T17:37:36;22.50;84.30
1091;DHT22;534;48.704;9.122;2022-08-19T17:40:07;22.50;84.00
1091;DHT22;534;48.704;9.122;2022-08-19T17:42:34;22.70;83.60
1091;DHT22;534;48.704;9.122;2022-08-19T17:45:01;22.70;83.30
1091;DHT22;534;48.704;9.122;2022-08-19T17:47:28;22.40;84.60
1091;DHT22;534;48.704;9.122;2022-08-19T17:49:55;22.40;84.70
1091;DHT22;534;48.704;9.122;2022-08-19T17:52:22;22.40;84.90
1091;DHT22;534;48.704;9.122;2022-08-19T17:54:49;22.50;84.70
1091;DHT22;534;48.704;9.122;2022-08-19T17:57:17;22.50;84.40
1091;DHT22;534;48.704;9.122;2022-08-19T17:59:44;22.60;84.20
1091;DHT22;534;48.704;9.122;2022-08-19T18:02:10;22.30;85.00
1091;DHT22;534;48.704;9.122;2022-08-19T18:04:37;22.30;85.00
1091;DHT22;534;48.704;9.122;2022-08-19T18:07:04;22.10;85.80
1091;DHT22;534;48.704;9.122;2022-08-19T18:09:33;22.10;85.80
1091;DHT22;534;48.704;9.122;2022-08-19T18:12:00;22.10;85.90
1091;DHT22;534;48.704;9.122;2022-08-19T18:14:32;22.20;85.70
1091;DHT22;534;48.704;9.122;2022-08-19T18:17:00;22.20;85.60
1091;DHT22;534;48.704;9.122;2022-08-19T18:19:29;22.20;85.70
1091;DHT22;534;48.704;9.122;2022-08-19T18:21:56;22.20;85.80
1091;DHT22;534;48.704;9.122;2022-08-19T18:24:23;22.30;85.60
1091;DHT22;534;48.704;9.122;2022-08-19T18:26:50;22.10;85.90
1091;DHT22;534;48.704;9.122;2022-08-19T18:29:17;22.00;86.70
1091;DHT22;534;48.704;9.122;2022-08-19T18:31:45;22.20;86.20
1091;DHT22;534;48.704;9.122;2022-08-19T18:34:12;22.30;85.70
1091;DHT22;534;48.704;9.122;2022-08-19T18:36:39;22.40;85.30
1091;DHT22;534;48.704;9.122;2022-08-19T18:39:06;22.40;85.20
1091;DHT22;534;48.704;9.122;2022-08-19T18:41:51;22.40;85.20
1091;DHT22;534;48.704;9.122;2022-08-19T18:44:35;22.50;84.70
1091;DHT22;534;48.704;9.122;2022-08-19T18:47:21;22.50;84.40
1091;DHT22;534;48.704;9.122;2022-08-19T18:50:06;22.50;84.20
1091;DHT22;534;48.704;9.122;2022-08-19T18:52:34;22.40;84.80
1091;DHT22;534;48.704;9.122;2022-08-19T18:55:02;22.40;84.80
1091;DHT22;534;48.704;9.122;2022-08-19T18:57:29;22.50;84.60
1091;DHT22;534;48.704;9.122;2022-08-19T18:59:56;22.50;84.40
1091;DHT22;534;48.704;9.122;2022-08-19T19:02:25;22.50;84.30
1091;DHT22;534;48.704;9.122;2022-08-19T19:04:52;22.50;83.80
1091;DHT22;534;48.704;9.122;2022-08-19T19:07:20;22.60;83.40
1091;DHT22;534;48.704;9.122;2022-08-19T19:09:47;22.50;83.30
1091;DHT22;534;48.704;9.122;2022-08-19T19:12:14;22.50;83.10
1091;DHT22;534;48.704;9.122;2022-08-19T19:14:42;22.50;83.30
1091;DHT22;534;48.704;9.122;2022-08-19T19:17:11;22.50;83.00
1091;DHT22;534;48.704;9.122;2022-08-19T19:19:40;22.50;82.60
1091;DHT22;534;48.704;9.122;2022-08-19T19:22:09;22.50;82.00
1091;DHT22;534;48.704;9.122;2022-08-19T19:24:38;22.50;81.90
1091;DHT22;534;48.704;9.122;2022-08-19T19:27:09;22.50;80.80